Time;durP1;ratioP1;P1;durP2;ratioP2;P2;SDS_P1;SDS_P2;PMS_P1;PMS_P2;Temp;Humidity;BMP_temperature;BMP_pressure;BME280_temperature;BME280_humidity;BME280_pressure;Samples;Min_cycle;Max_cycle;Signal;HPM_P1;HPM_P2
2022/10/06 00:01:11;;;;;;;1.60;0.93;;;11.20;99.90;;;;;;5050274;28;20643;-51
2022/10/06 00:03:38;;;;;;;1.50;1.00;;;11.20;99.90;;;;;;5049885;28;20495;-52
2022/10/06 00:06:06;;;;;;;4.17;1.10;;;11.10;99.90;;;;;;5050201;28;20865;-52
2022/10/06 00:08:35;;;;;;;1.73;0.90;;;11.00;99.90;;;;;;5050170;28;20461;-52
2022/10/06 00:11:02;;;;;;;1.73;0.90;;;11.10;99.90;;;;;;5049796;28;20448;-52
2022/10/06 00:13:31;;;;;;;5.87;0.93;;;11.20;99.90;;;;;;5049465;28;20450;-53
2022/10/06 00:15:58;;;;;;;2.03;1.20;;;11.10;99.90;;;;;;5049865;28;20936;-52
2022/10/06 00:18:27;;;;;;;1.30;0.90;;;11.10;99.90;;;;;;5049483;28;21039;-52
2022/10/06 00:20:55;;;;;;;1.73;1.50;;;10.80;99.90;;;;;;5049759;28;20533;-52
2022/10/06 00:23:22;;;;;;;1.87;1.17;;;10.80;99.90;;;;;;5049268;28;20524;-52
2022/10/06 00:25:50;;;;;;;3.33;1.00;;;10.80;99.90;;;;;;5049304;28;20904;-52
2022/10/06 00:28:17;;;;;;;1.40;1.10;;;10.80;99.90;;;;;;5049976;28;20999;-52
2022/10/06 00:30:45;;;;;;;2.33;1.00;;;10.80;99.90;;;;;;5049035;28;20442;-52
2022/10/06 00:33:14;;;;;;;1.70;1.20;;;10.70;99.90;;;;;;5049263;28;20847;-52
2022/10/06 00:35:43;;;;;;;2.50;1.10;;;10.70;99.90;;;;;;5049380;28;20685;-52
2022/10/06 00:38:11;;;;;;;1.53;0.87;;;10.80;99.90;;;;;;5049220;28;20932;-52
2022/10/06 00:40:45;;;;;;;4.00;1.03;;;10.80;99.90;;;;;;5049326;28;20450;-51
2022/10/06 00:43:43;;;;;;;3.00;0.90;;;10.80;99.90;;;;;;5049174;28;20442;-52
2022/10/06 00:46:15;;;;;;;1.90;0.90;;;10.80;99.90;;;;;;5049240;28;20532;-51
2022/10/06 00:48:43;;;;;;;9.40;1.10;;;10.80;99.90;;;;;;5049197;28;20797;-51
2022/10/06 00:51:13;;;;;;;3.17;1.33;;;10.80;99.90;;;;;;5049409;28;20525;-51
2022/10/06 00:53:40;;;;;;;2.03;1.03;;;10.80;99.90;;;;;;5049023;28;20477;-52
2022/10/06 00:56:07;;;;;;;1.60;0.97;;;10.80;99.90;;;;;;5049639;28;20442;-52
2022/10/06 00:58:35;;;;;;;1.53;0.80;;;10.80;99.90;;;;;;5049033;28;20654;-52
2022/10/06 01:01:03;;;;;;;4.20;1.23;;;10.90;99.90;;;;;;5049003;28;20529;-52
2022/10/06 01:03:33;;;;;;;1.53;0.90;;;10.90;99.90;;;;;;5048586;28;20538;-52
2022/10/06 01:06:02;;;;;;;1.20;0.80;;;10.90;99.90;;;;;;5049043;28;20450;-51
2022/10/06 01:08:32;;;;;;;1.20;0.70;;;11.00;99.90;;;;;;5048896;28;20457;-52
2022/10/06 01:10:59;;;;;;;1.50;0.63;;;10.90;99.90;;;;;;5048906;28;20446;-52
2022/10/06 01:13:28;;;;;;;2.37;0.80;;;10.60;99.90;;;;;;5048655;28;20564;-52
2022/10/06 01:16:02;;;;;;;1.70;0.70;;;10.50;99.90;;;;;;5048783;28;20485;-52
2022/10/06 01:18:29;;;;;;;2.30;1.00;;;10.70;99.90;;;;;;5048622;28;20453;-52
2022/10/06 01:21:03;;;;;;;1.80;1.00;;;10.70;99.90;;;;;;5048725;28;20438;-52
2022/10/06 01:23:33;;;;;;;2.50;1.10;;;10.60;99.90;;;;;;5048532;28;20941;-53
2022/10/06 01:26:03;;;;;;;2.13;0.80;;;10.60;99.90;;;;;;5048374;28;20477;-52
2022/10/06 01:28:30;;;;;;;1.50;0.90;;;10.70;99.90;;;;;;5048798;28;20446;-52
2022/10/06 01:30:59;;;;;;;2.83;1.13;;;10.80;99.90;;;;;;5048899;28;20801;-51
2022/10/06 01:33:26;;;;;;;1.93;1.00;;;10.80;99.90;;;;;;5048319;28;20474;-53
2022/10/06 01:35:53;;;;;;;2.17;0.70;;;10.70;99.90;;;;;;5048519;28;21006;-52
2022/10/06 01:38:21;;;;;;;1.43;0.80;;;10.50;99.90;;;;;;5048402;28;20446;-52
2022/10/06 01:40:51;;;;;;;2.13;1.07;;;10.60;99.90;;;;;;5048585;28;20785;-52
2022/10/06 01:43:18;;;;;;;2.60;0.90;;;10.70;99.90;;;;;;5047350;28;20440;-52
2022/10/06 01:45:46;;;;;;;1.13;0.63;;;10.80;99.90;;;;;;5048380;28;20445;-52
2022/10/06 01:48:13;;;;;;;6.30;1.10;;;10.80;99.90;;;;;;5048312;28;20450;-51
2022/10/06 01:50:41;;;;;;;2.20;1.00;;;10.60;99.90;;;;;;5048329;28;20887;-51
2022/10/06 01:53:07;;;;;;;1.20;0.60;;;10.60;99.90;;;;;;5048206;28;20474;-52
2022/10/06 01:55:35;;;;;;;1.40;1.10;;;10.50;99.90;;;;;;5076492;23;20490;-48
2022/10/06 01:58:03;;;;;;;1.30;0.80;;;10.50;99.90;;;;;;5008543;28;20455;-47
2022/10/06 02:00:30;;;;;;;1.80;1.17;;;10.60;99.90;;;;;;5008525;28;20446;-49
2022/10/06 02:02:57;;;;;;;1.60;0.90;;;10.50;99.90;;;;;;5008557;28;20438;-48
2022/10/06 02:05:24;;;;;;;1.87;0.80;;;10.50;99.90;;;;;;5008741;28;20546;-51
2022/10/06 02:07:51;;;;;;;2.07;0.90;;;10.60;99.90;;;;;;5008556;28;20964;-48
2022/10/06 02:10:18;;;;;;;3.10;1.00;;;10.60;99.90;;;;;;5008710;28;20452;-48
2022/10/06 02:12:45;;;;;;;1.50;0.80;;;10.60;99.90;;;;;;5008558;28;20486;-49
2022/10/06 02:15:13;;;;;;;1.47;0.77;;;10.40;99.90;;;;;;5008225;28;20554;-48
2022/10/06 02:17:40;;;;;;;1.63;1.40;;;10.50;99.90;;;;;;5008303;28;20447;-48
2022/10/06 02:20:07;;;;;;;1.60;1.00;;;10.50;99.90;;;;;;5008383;28;20534;-49
2022/10/06 02:22:38;;;;;;;1.77;1.10;;;10.50;99.90;;;;;;5008504;28;20937;-48
2022/10/06 02:25:05;;;;;;;1.10;0.73;;;10.30;99.90;;;;;;5007997;28;21046;-48
2022/10/06 02:27:32;;;;;;;2.67;0.90;;;10.30;99.90;;;;;;5007850;28;21022;-49
2022/10/06 02:30:00;;;;;;;1.47;1.00;;;10.30;99.90;;;;;;5008151;28;20446;-48
2022/10/06 02:32:34;;;;;;;2.13;1.10;;;10.40;99.90;;;;;;5008538;28;20475;-48
2022/10/06 02:35:02;;;;;;;2.00;1.00;;;10.10;99.90;;;;;;5007933;28;20584;-48
2022/10/06 02:37:29;;;;;;;2.20;1.03;;;9.90;99.90;;;;;;5008519;28;20819;-48
2022/10/06 02:39:56;;;;;;;1.63;0.73;;;10.10;99.90;;;;;;5008188;28;20544;-50
2022/10/06 02:42:23;;;;;;;2.20;1.20;;;10.10;99.90;;;;;;5008211;28;20436;-48
2022/10/06 02:44:51;;;;;;;2.07;0.87;;;10.10;99.90;;;;;;5007927;28;20541;-48
2022/10/06 02:47:18;;;;;;;2.70;1.13;;;10.20;99.90;;;;;;5007965;28;20448;-49
2022/10/06 02:49:46;;;;;;;1.57;0.83;;;10.30;99.90;;;;;;5007975;28;20447;-48
2022/10/06 02:52:14;;;;;;;1.50;0.97;;;10.40;99.90;;;;;;5007992;28;20674;-48
2022/10/06 02:54:41;;;;;;;2.67;1.10;;;10.40;99.90;;;;;;5008735;28;21004;-48
2022/10/06 02:57:08;;;;;;;1.90;0.93;;;10.40;99.90;;;;;;5011334;28;20797;-48
2022/10/06 02:59:35;;;;;;;1.70;1.40;;;10.30;99.90;;;;;;5011497;28;20443;-48
2022/10/06 03:02:02;;;;;;;1.30;0.83;;;10.30;99.90;;;;;;5011161;28;20447;-49
2022/10/06 03:04:29;;;;;;;2.53;1.23;;;10.00;99.90;;;;;;5011150;28;20472;-48
2022/10/06 03:06:57;;;;;;;1.27;0.90;;;10.00;99.90;;;;;;5011258;28;20443;-49
2022/10/06 03:09:25;;;;;;;1.87;1.10;;;10.20;99.90;;;;;;5011127;28;20444;-48
2022/10/06 03:11:51;;;;;;;1.70;1.00;;;10.30;99.90;;;;;;5010906;28;20458;-48
2022/10/06 03:14:18;;;;;;;1.73;1.00;;;10.00;99.90;;;;;;5010781;28;20465;-51
2022/10/06 03:16:45;;;;;;;2.67;1.17;;;10.10;99.90;;;;;;5011056;28;20443;-48
2022/10/06 03:19:12;;;;;;;2.83;1.20;;;10.10;99.90;;;;;;5010953;28;20443;-48
2022/10/06 03:21:41;;;;;;;2.93;1.37;;;10.00;99.90;;;;;;5010912;28;20440;-50
2022/10/06 03:24:09;;;;;;;2.23;1.00;;;10.00;99.90;;;;;;5010845;28;20460;-48
2022/10/06 03:26:37;;;;;;;2.70;1.17;;;10.20;99.90;;;;;;5010609;28;20794;-47
2022/10/06 03:29:04;;;;;;;1.90;1.40;;;10.20;99.90;;;;;;5011210;28;20443;-47
2022/10/06 03:31:31;;;;;;;1.90;1.23;;;10.20;99.90;;;;;;5010749;28;20451;-48
2022/10/06 03:33:58;;;;;;;2.57;1.20;;;10.30;99.90;;;;;;5010535;28;20489;-48
2022/10/06 03:36:27;;;;;;;1.60;1.20;;;10.10;99.90;;;;;;5010834;28;20446;-48
2022/10/06 03:38:54;;;;;;;2.07;1.10;;;10.10;99.90;;;;;;5010702;28;20527;-50
2022/10/06 03:41:24;;;;;;;4.03;1.20;;;10.10;99.90;;;;;;5011067;28;20486;-48
2022/10/06 03:43:53;;;;;;;2.20;1.30;;;10.10;99.90;;;;;;5010428;28;20516;-48
2022/10/06 03:46:21;;;;;;;3.30;1.30;;;10.10;99.90;;;;;;5010669;28;20547;-48
2022/10/06 03:48:49;;;;;;;4.63;1.60;;;10.10;99.90;;;;;;5010475;28;20831;-48
2022/10/06 03:51:19;;;;;;;1.70;0.83;;;10.10;99.90;;;;;;5010819;28;20450;-48
2022/10/06 03:53:47;;;;;;;3.77;1.30;;;10.00;99.90;;;;;;5010166;28;20883;-48
2022/10/06 03:56:16;;;;;;;2.83;1.30;;;10.00;99.90;;;;;;5010533;28;20446;-48
2022/10/06 03:58:46;;;;;;;1.20;0.97;;;9.90;99.90;;;;;;5010600;28;20444;-45
2022/10/06 04:01:16;;;;;;;3.07;1.10;;;9.90;99.90;;;;;;5010313;28;20543;-50
2022/10/06 04:03:43;;;;;;;2.43;1.40;;;10.00;99.90;;;;;;5009939;28;20530;-48
2022/10/06 04:06:12;;;;;;;1.70;1.10;;;10.00;99.90;;;;;;5009414;28;20467;-50
2022/10/06 04:08:40;;;;;;;1.20;0.97;;;10.10;99.90;;;;;;5010655;28;20524;-48
2022/10/06 04:11:09;;;;;;;1.40;1.10;;;10.10;99.90;;;;;;5010302;28;20443;-48
2022/10/06 04:13:36;;;;;;;3.97;1.40;;;10.00;99.90;;;;;;5009883;28;20479;-51
2022/10/06 04:16:16;;;;;;;1.37;1.10;;;9.90;99.90;;;;;;5010349;28;20490;-48
2022/10/06 04:18:44;;;;;;;1.33;1.20;;;9.80;99.90;;;;;;5009723;28;20526;-48
2022/10/06 04:21:12;;;;;;;1.90;1.50;;;9.80;99.90;;;;;;5010283;28;20526;-48
2022/10/06 04:23:39;;;;;;;7.30;5.00;;;9.70;99.90;;;;;;5009984;28;20535;-51
2022/10/06 04:26:09;;;;;;;11.00;7.10;;;9.70;99.90;;;;;;5009658;28;20447;-48
2022/10/06 04:28:36;;;;;;;6.90;3.97;;;9.70;99.90;;;;;;5010062;28;20452;-48
2022/10/06 04:31:05;;;;;;;3.97;2.63;;;9.70;99.90;;;;;;5010034;28;20447;-48
2022/10/06 04:33:33;;;;;;;8.00;3.20;;;9.50;99.90;;;;;;5009618;28;20845;-48
2022/10/06 04:36:02;;;;;;;3.77;1.47;;;9.50;99.90;;;;;;5009814;28;20520;-48
2022/10/06 04:38:29;;;;;;;2.17;1.27;;;9.60;99.90;;;;;;5009975;28;20963;-47
2022/10/06 04:40:57;;;;;;;3.70;1.30;;;9.70;99.90;;;;;;5010014;28;20444;-50
2022/10/06 04:43:24;;;;;;;3.80;1.30;;;9.60;99.90;;;;;;5009876;28;20713;-48
2022/10/06 04:45:57;;;;;;;3.63;1.80;;;9.70;99.90;;;;;;5009817;28;20883;-48
2022/10/06 04:48:25;;;;;;;1.90;1.50;;;9.90;99.90;;;;;;5010047;28;20952;-51
2022/10/06 04:50:58;;;;;;;4.13;1.60;;;9.90;99.90;;;;;;5009614;28;20518;-48
2022/10/06 04:53:26;;;;;;;2.30;1.70;;;9.70;99.90;;;;;;5009630;28;20490;-49
2022/10/06 04:56:01;;;;;;;2.80;2.60;;;9.30;99.90;;;;;;5009791;28;20475;-50
2022/10/06 04:58:31;;;;;;;2.30;1.43;;;9.10;99.90;;;;;;5009849;28;20447;-50
2022/10/06 05:00:58;;;;;;;3.20;1.53;;;9.20;99.90;;;;;;5009696;28;20454;-49
2022/10/06 05:03:25;;;;;;;2.93;1.40;;;9.30;99.90;;;;;;5009397;28;20821;-49
2022/10/06 05:05:52;;;;;;;2.40;1.80;;;9.20;99.90;;;;;;5009915;28;20501;-49
2022/10/06 05:08:20;;;;;;;1.83;1.00;;;9.30;99.90;;;;;;5009675;28;20969;-50
2022/10/06 05:10:46;;;;;;;4.90;1.37;;;9.10;99.90;;;;;;5009461;28;20450;-49
2022/10/06 05:13:14;;;;;;;3.73;2.97;;;9.10;99.90;;;;;;5009131;28;20486;-50
2022/10/06 05:15:41;;;;;;;4.20;2.03;;;9.30;99.90;;;;;;5009322;28;20506;-50
2022/10/06 05:18:08;;;;;;;1.90;1.57;;;9.40;99.90;;;;;;5008577;28;20469;-47
2022/10/06 05:20:34;;;;;;;2.23;1.47;;;9.40;99.90;;;;;;5009348;28;20874;-47
2022/10/06 05:23:01;;;;;;;4.43;1.10;;;9.50;99.90;;;;;;5009009;28;20442;-48
2022/10/06 05:25:29;;;;;;;1.53;1.37;;;9.30;99.90;;;;;;5009230;28;20528;-48
2022/10/06 05:27:56;;;;;;;1.60;1.50;;;9.30;99.90;;;;;;5008677;28;20448;-48
2022/10/06 05:30:23;;;;;;;1.60;1.50;;;9.40;99.90;;;;;;5009011;28;20447;-49
2022/10/06 05:32:51;;;;;;;2.20;1.93;;;9.50;99.90;;;;;;5009213;28;20473;-44
2022/10/06 05:35:18;;;;;;;3.37;2.53;;;9.50;99.90;;;;;;5009492;28;20471;-48
2022/10/06 05:37:45;;;;;;;3.77;3.47;;;9.50;99.90;;;;;;5009063;28;20455;-48
2022/10/06 05:40:12;;;;;;;3.47;3.17;;;9.50;99.90;;;;;;5009603;28;20447;-48
2022/10/06 05:42:41;;;;;;;6.73;5.30;;;9.60;99.90;;;;;;5009024;28;20443;-49
2022/10/06 05:45:09;;;;;;;4.40;4.00;;;9.50;99.90;;;;;;5008907;28;20463;-48
2022/10/06 05:47:36;;;;;;;4.60;4.03;;;9.60;99.90;;;;;;5008933;28;20811;-48
2022/10/06 05:50:02;;;;;;;6.43;5.50;;;9.60;99.90;;;;;;5008948;28;20508;-48
2022/10/06 05:52:29;;;;;;;6.23;5.63;;;9.50;99.90;;;;;;5009139;28;20469;-48
2022/10/06 05:54:56;;;;;;;4.90;4.50;;;9.30;99.90;;;;;;5008125;28;20493;-50
2022/10/06 05:57:23;;;;;;;3.80;2.50;;;9.40;99.90;;;;;;5008985;28;20938;-47
2022/10/06 05:59:51;;;;;;;4.10;2.13;;;9.30;99.90;;;;;;5008877;28;20450;-48
2022/10/06 06:02:18;;;;;;;3.77;1.77;;;9.50;99.90;;;;;;5008700;28;20538;-48
2022/10/06 06:04:45;;;;;;;3.97;2.80;;;9.50;99.90;;;;;;5008533;28;20455;-48
2022/10/06 06:07:12;;;;;;;5.90;2.80;;;9.50;99.90;;;;;;5008730;28;20443;-47
2022/10/06 06:09:39;;;;;;;4.07;2.87;;;9.50;99.90;;;;;;5008456;28;20481;-47
2022/10/06 06:12:06;;;;;;;3.47;2.57;;;9.40;99.90;;;;;;5008860;28;20448;-49
2022/10/06 06:17:18;;;;;;;2.03;1.70;;;9.50;99.90;;;;;;5007979;28;20451;-49
2022/10/06 06:19:45;;;;;;;3.60;1.90;;;9.30;99.90;;;;;;5008431;28;20443;-49
2022/10/06 06:22:12;;;;;;;1.47;1.30;;;9.40;99.90;;;;;;5008469;28;20443;-50
2022/10/06 06:24:39;;;;;;;1.87;1.67;;;9.40;99.90;;;;;;5008404;28;20546;-49
2022/10/06 06:27:06;;;;;;;2.80;2.57;;;9.40;99.90;;;;;;5007714;28;20451;-49
2022/10/06 06:29:33;;;;;;;2.10;1.60;;;9.30;99.90;;;;;;5009568;28;20526;-49
2022/10/06 06:32:00;;;;;;;3.30;2.33;;;9.40;99.90;;;;;;5012317;28;20873;-49
2022/10/06 06:34:28;;;;;;;2.20;1.90;;;9.30;99.90;;;;;;5011712;28;20734;-48
2022/10/06 06:36:57;;;;;;;3.70;2.53;;;9.10;99.90;;;;;;5011670;28;20448;-49
2022/10/06 06:39:24;;;;;;;3.17;1.83;;;9.00;99.90;;;;;;5011609;28;20836;-49
2022/10/06 06:41:52;;;;;;;3.73;2.33;;;8.80;99.90;;;;;;5011817;28;20496;-50
2022/10/06 06:44:20;;;;;;;2.60;2.20;;;8.60;99.90;;;;;;5011298;28;20468;-48
2022/10/06 06:46:48;;;;;;;2.73;2.10;;;8.80;99.90;;;;;;5011507;28;20539;-48
2022/10/06 06:49:16;;;;;;;3.60;2.13;;;9.20;99.90;;;;;;5011805;28;20860;-48
2022/10/06 06:51:48;;;;;;;10.73;5.00;;;9.30;99.90;;;;;;5011199;28;20518;-48
2022/10/06 06:54:15;;;;;;;18.23;8.30;;;9.40;99.90;;;;;;5011005;28;20483;-48
2022/10/06 06:56:44;;;;;;;6.40;5.60;;;9.40;99.90;;;;;;5011528;28;20443;-49
2022/10/06 06:59:12;;;;;;;9.20;4.10;;;9.50;99.90;;;;;;5011230;28;20497;-48
2022/10/06 07:01:44;;;;;;;9.63;2.97;;;9.50;99.90;;;;;;5011152;28;20935;-48
2022/10/06 07:04:12;;;;;;;3.83;2.50;;;9.60;99.90;;;;;;5011595;28;20464;-49
2022/10/06 07:06:40;;;;;;;6.20;2.00;;;9.60;99.90;;;;;;5011149;28;20443;-48
2022/10/06 07:09:09;;;;;;;3.20;2.57;;;9.50;99.90;;;;;;5011254;28;20831;-51
2022/10/06 07:11:38;;;;;;;5.20;1.80;;;9.20;99.90;;;;;;5011000;28;20439;-48
2022/10/06 07:14:07;;;;;;;2.60;1.80;;;9.30;99.90;;;;;;5010573;28;21014;-48
2022/10/06 07:25:10;;;;;;;9.43;5.00;;;9.70;99.90;;;;;;5010559;28;20481;-48
2022/10/06 07:27:40;;;;;;;7.20;4.37;;;9.70;99.90;;;;;;5010553;28;20439;-48
2022/10/06 07:30:09;;;;;;;3.70;2.37;;;9.60;99.90;;;;;;5010721;28;20493;-48
2022/10/06 07:32:36;;;;;;;3.13;1.90;;;9.40;99.90;;;;;;5010874;28;20816;-50
2022/10/06 07:35:05;;;;;;;3.30;2.10;;;9.50;99.90;;;;;;5010606;28;20540;-48
2022/10/06 07:37:33;;;;;;;3.67;2.03;;;9.70;99.90;;;;;;5009692;28;20448;-48
2022/10/06 07:40:03;;;;;;;2.60;2.00;;;9.80;99.90;;;;;;5008720;28;20443;-48
2022/10/06 07:42:46;;;;;;;6.10;2.43;;;9.90;99.90;;;;;;5008289;28;20446;-48
2022/10/06 07:47:59;;;;;;;3.23;2.00;;;9.90;99.90;;;;;;5010456;28;20427;-48
2022/10/06 07:50:26;;;;;;;2.60;1.17;;;9.90;99.90;;;;;;5010358;28;20443;-48
2022/10/06 07:52:53;;;;;;;2.00;1.70;;;9.90;99.90;;;;;;5010056;28;20446;-45
2022/10/06 07:55:21;;;;;;;2.30;1.37;;;9.90;99.90;;;;;;5010989;28;20489;-50
2022/10/06 07:57:49;;;;;;;1.60;1.50;;;10.00;99.90;;;;;;5009044;28;20526;-49
2022/10/06 08:00:19;;;;;;;7.40;1.60;;;9.90;99.90;;;;;;5008979;28;20443;-48
2022/10/06 08:02:46;;;;;;;11.10;2.30;;;10.20;99.90;;;;;;5008789;28;20902;-51
2022/10/06 08:05:13;;;;;;;3.67;1.97;;;10.40;99.90;;;;;;5008640;28;20491;-48
2022/10/06 08:07:41;;;;;;;4.10;1.93;;;10.50;99.90;;;;;;5008714;28;20450;-48
2022/10/06 08:10:08;;;;;;;2.90;1.90;;;10.60;99.90;;;;;;5008950;28;20470;-48
2022/10/06 08:12:38;;;;;;;13.37;5.30;;;10.60;99.90;;;;;;5010315;28;20534;-48
2022/10/06 08:15:10;;;;;;;6.20;2.73;;;10.70;99.90;;;;;;5009978;28;20515;-48
2022/10/06 08:17:37;;;;;;;8.23;3.10;;;10.70;99.90;;;;;;5010191;28;20440;-48
2022/10/06 08:20:05;;;;;;;52.30;10.33;;;10.70;99.90;;;;;;5009992;28;20535;-48
2022/10/06 08:22:32;;;;;;;73.90;13.40;;;10.80;99.90;;;;;;5010134;28;20538;-48
2022/10/06 08:24:59;;;;;;;39.70;8.13;;;11.00;99.90;;;;;;5009999;28;20464;-48
2022/10/06 08:27:28;;;;;;;75.93;13.23;;;11.10;99.90;;;;;;5009632;28;20480;-49
2022/10/06 08:29:57;;;;;;;23.87;4.23;;;11.20;99.90;;;;;;5009870;28;20455;-48
2022/10/06 08:32:24;;;;;;;11.90;2.73;;;11.20;99.90;;;;;;5009858;28;20450;-48
2022/10/06 08:34:52;;;;;;;7.83;2.90;;;11.30;99.90;;;;;;5008197;28;20491;-48
2022/10/06 08:37:22;;;;;;;3.93;1.87;;;11.30;99.90;;;;;;5008537;28;20542;-49
2022/10/06 08:39:49;;;;;;;9.57;2.93;;;11.40;99.90;;;;;;5008305;28;20448;-50
2022/10/06 08:42:22;;;;;;;3.10;1.87;;;11.30;99.90;;;;;;5008202;28;20558;-48
2022/10/06 08:44:55;;;;;;;4.50;2.30;;;11.40;99.90;;;;;;5007940;28;20543;-49
2022/10/06 08:47:26;;;;;;;3.07;1.90;;;11.40;99.90;;;;;;5008165;28;20456;-48
2022/10/06 08:49:54;;;;;;;21.10;5.70;;;11.40;99.90;;;;;;5009714;28;20458;-48
2022/10/06 08:52:35;;;;;;;7.70;3.17;;;11.60;99.90;;;;;;5009246;28;20459;-48
2022/10/06 08:55:10;;;;;;;18.93;3.53;;;11.80;99.90;;;;;;5008963;28;21000;-48
2022/10/06 08:57:42;;;;;;;9.13;3.00;;;11.90;99.90;;;;;;5009962;28;20534;-48
2022/10/06 09:00:11;;;;;;;27.07;5.37;;;12.10;99.90;;;;;;5009820;28;20444;-48
2022/10/06 09:02:44;;;;;;;12.20;3.67;;;12.10;99.90;;;;;;5009458;28;20934;-48
2022/10/06 09:05:14;;;;;;;10.70;3.10;;;12.10;99.90;;;;;;5009765;28;20467;-48
2022/10/06 09:07:54;;;;;;;11.70;7.30;;;12.10;99.90;;;;;;5009456;28;20444;-48
2022/10/06 09:10:35;;;;;;;12.83;4.73;;;12.20;99.90;;;;;;5009320;28;20521;-48
2022/10/06 09:13:06;;;;;;;3.60;1.70;;;12.20;99.90;;;;;;5009253;28;20454;-49
2022/10/06 09:15:38;;;;;;;6.40;2.27;;;12.30;99.90;;;;;;5009277;28;20487;-48
2022/10/06 09:18:12;;;;;;;4.57;2.10;;;12.40;99.90;;;;;;5009190;28;20462;-48
2022/10/06 09:20:45;;;;;;;2.30;1.90;;;12.40;99.90;;;;;;5009488;28;20455;-48
2022/10/06 09:23:16;;;;;;;3.43;1.60;;;12.50;99.90;;;;;;5009137;28;20510;-48
2022/10/06 09:25:43;;;;;;;4.03;1.90;;;12.60;99.90;;;;;;5009312;28;21072;-48
2022/10/06 09:28:14;;;;;;;2.23;1.77;;;12.70;99.90;;;;;;5009056;28;20527;-48
2022/10/06 09:30:42;;;;;;;2.80;1.60;;;12.90;99.90;;;;;;5009429;28;21127;-49
2022/10/06 09:33:20;;;;;;;3.10;1.60;;;12.90;99.90;;;;;;5008016;28;20532;-48
2022/10/06 09:36:08;;;;;;;3.03;1.67;;;12.90;99.90;;;;;;5007411;28;20487;-48
2022/10/06 09:38:47;;;;;;;4.57;1.80;;;12.90;99.90;;;;;;5007904;28;21180;-47
2022/10/06 09:41:15;;;;;;;1.87;1.67;;;13.10;99.90;;;;;;5007612;28;20503;-48
2022/10/06 09:43:54;;;;;;;2.33;1.57;;;13.30;99.90;;;;;;5007319;28;20548;-48
2022/10/06 09:46:23;;;;;;;5.03;1.80;;;13.40;99.90;;;;;;5007528;28;20451;-48
2022/10/06 09:49:07;;;;;;;1.97;1.70;;;13.50;99.90;;;;;;5008570;28;20449;-49
2022/10/06 09:51:36;;;;;;;2.03;1.43;;;13.50;99.90;;;;;;5008915;28;20457;-48
2022/10/06 09:54:09;;;;;;;2.13;1.53;;;13.60;99.90;;;;;;5008107;28;20489;-50
2022/10/06 09:56:40;;;;;;;4.20;1.73;;;13.70;99.90;;;;;;5007751;28;20539;-49
2022/10/06 09:59:19;;;;;;;1.60;1.47;;;13.60;99.90;;;;;;5007187;28;20441;-48
2022/10/06 10:01:51;;;;;;;1.67;1.20;;;13.70;99.90;;;;;;5007549;28;20446;-48
2022/10/06 10:04:25;;;;;;;1.87;1.40;;;13.70;99.90;;;;;;5005737;28;20534;-49
2022/10/06 10:06:52;;;;;;;3.20;1.70;;;13.90;99.90;;;;;;5007234;28;20541;-48
2022/10/06 10:09:28;;;;;;;2.33;1.83;;;13.90;99.90;;;;;;5006425;28;20453;-48
2022/10/06 10:12:27;;;;;;;1.97;1.67;;;13.90;99.90;;;;;;5007322;28;20449;-49
2022/10/06 10:14:56;;;;;;;2.50;1.73;;;14.00;99.90;;;;;;5006941;28;20595;-48
2022/10/06 10:17:44;;;;;;;2.77;1.90;;;14.20;99.90;;;;;;5007387;28;20970;-48
2022/10/06 10:20:27;;;;;;;4.07;1.77;;;14.40;99.90;;;;;;5007460;28;20525;-49
2022/10/06 10:22:57;;;;;;;2.60;1.70;;;14.50;99.90;;;;;;5008072;28;20717;-49
2022/10/06 10:25:57;;;;;;;2.40;1.47;;;14.50;99.90;;;;;;5007914;28;20494;-48
2022/10/06 10:28:40;;;;;;;2.50;1.50;;;14.60;99.90;;;;;;5012028;28;21512;-49
2022/10/06 10:31:13;;;;;;;2.63;1.70;;;14.80;99.90;;;;;;5008308;28;21039;-48
2022/10/06 10:33:45;;;;;;;3.00;1.60;;;15.00;99.90;;;;;;5007225;28;20447;-49
2022/10/06 10:36:17;;;;;;;3.40;1.80;;;14.90;99.90;;;;;;5006644;28;20911;-48
2022/10/06 10:38:46;;;;;;;3.30;1.40;;;15.00;99.90;;;;;;5006979;28;20448;-50
2022/10/06 10:41:19;;;;;;;2.30;1.60;;;15.10;99.90;;;;;;5006871;28;20438;-48
2022/10/06 10:43:50;;;;;;;2.10;1.50;;;15.10;99.90;;;;;;5006426;28;21126;-45
2022/10/06 10:46:24;;;;;;;3.70;1.80;;;15.30;99.90;;;;;;5006712;28;20929;-49
2022/10/06 10:48:56;;;;;;;5.17;1.87;;;15.40;99.90;;;;;;5006696;28;20438;-51
2022/10/06 10:51:28;;;;;;;2.40;1.50;;;15.40;99.90;;;;;;5006755;28;20456;-50
2022/10/06 10:54:00;;;;;;;3.93;2.10;;;15.40;99.90;;;;;;5006589;28;20965;-49
2022/10/06 10:56:27;;;;;;;2.83;1.80;;;15.40;99.90;;;;;;5006641;28;20479;-48
2022/10/06 10:59:00;;;;;;;2.67;1.80;;;15.50;99.90;;;;;;5007667;28;20473;-48
2022/10/06 11:01:35;;;;;;;3.17;2.10;;;15.40;99.90;;;;;;5007251;28;20538;-50
2022/10/06 11:04:03;;;;;;;2.17;1.77;;;15.50;99.90;;;;;;5007381;28;20832;-48
2022/10/06 11:06:53;;;;;;;2.27;1.73;;;15.60;99.90;;;;;;5007394;28;20450;-49
2022/10/06 11:09:25;;;;;;;3.27;2.13;;;15.50;99.90;;;;;;5006859;28;20465;-48
2022/10/06 11:12:06;;;;;;;2.23;1.60;;;15.40;99.90;;;;;;5006876;28;20447;-48
2022/10/06 11:14:55;;;;;;;4.93;1.73;;;15.50;99.90;;;;;;5007649;28;20558;-48
2022/10/06 11:17:43;;;;;;;2.50;1.73;;;15.60;99.90;;;;;;5009527;28;20448;-49
2022/10/06 11:20:25;;;;;;;2.13;1.70;;;15.80;99.90;;;;;;5009311;28;20446;-49
2022/10/06 11:23:01;;;;;;;1.87;1.67;;;15.90;99.90;;;;;;5009216;28;20436;-45
2022/10/06 11:25:35;;;;;;;3.60;1.87;;;16.10;99.90;;;;;;5009594;28;20546;-49
2022/10/06 11:28:12;;;;;;;2.00;1.80;;;16.00;99.90;;;;;;5009602;28;20449;-49
2022/10/06 11:30:55;;;;;;;20.10;4.20;;;16.00;99.90;;;;;;5009671;28;20439;-50
2022/10/06 11:33:29;;;;;;;628.30;108.07;;;16.10;99.90;;;;;;5010235;28;20530;-50
2022/10/06 11:35:56;;;;;;;353.47;48.20;;;16.20;99.90;;;;;;5010797;28;20494;-50
2022/10/06 11:38:29;;;;;;;642.33;106.60;;;16.20;99.90;;;;;;5010810;28;20949;-49
2022/10/06 11:41:08;;;;;;;21.77;6.20;;;16.40;99.90;;;;;;5010149;28;21048;-50
2022/10/06 11:43:45;;;;;;;120.93;20.93;;;16.20;99.90;;;;;;5008946;28;20451;-49
2022/10/06 11:46:24;;;;;;;296.27;43.70;;;16.10;99.90;;;;;;5009669;28;20969;-50
2022/10/06 11:48:51;;;;;;;3.70;2.30;;;16.40;99.90;;;;;;5010075;28;20451;-50
2022/10/06 11:51:30;;;;;;;6.07;2.03;;;16.40;99.90;;;;;;5010317;28;20825;-50
2022/10/06 11:53:59;;;;;;;84.57;14.63;;;16.50;99.90;;;;;;5010164;28;20466;-51
2022/10/06 11:56:44;;;;;;;19.60;4.50;;;16.90;99.90;;;;;;5010281;28;20483;-50
2022/10/06 11:59:26;;;;;;;9.37;3.20;;;16.50;99.90;;;;;;5010358;28;20669;-53
2022/10/06 12:01:55;;;;;;;1.87;1.40;;;16.30;99.90;;;;;;5009408;28;20478;-49
2022/10/06 12:04:25;;;;;;;7.87;3.67;;;16.90;99.90;;;;;;5010078;28;20522;-50
2022/10/06 12:06:58;;;;;;;4.17;1.40;;;17.60;99.90;;;;;;5010386;28;20431;-52
2022/10/06 12:09:51;;;;;;;1.40;1.10;;;17.20;99.90;;;;;;5010611;28;20855;-50
2022/10/06 12:12:55;;;;;;;1.50;1.20;;;17.30;99.90;;;;;;5010298;28;20442;-52
2022/10/06 12:15:55;;;;;;;2.83;1.70;;;17.00;99.90;;;;;;5009906;28;21009;-50
2022/10/06 12:18:33;;;;;;;3.17;1.80;;;16.70;99.90;;;;;;5009186;28;20444;-50
2022/10/06 12:21:12;;;;;;;4.37;2.00;;;16.90;99.90;;;;;;5008626;28;20439;-50
2022/10/06 12:23:53;;;;;;;81.03;13.10;;;16.90;99.90;;;;;;5008593;28;20450;-50
2022/10/06 12:26:33;;;;;;;406.43;59.63;;;17.10;99.90;;;;;;5008217;28;20926;-50
2022/10/06 12:29:17;;;;;;;2.30;2.10;;;17.00;99.90;;;;;;5008239;28;20799;-51
2022/10/06 12:31:51;;;;;;;3.23;1.73;;;17.40;99.90;;;;;;5008314;28;20485;-49
2022/10/06 12:34:54;;;;;;;423.50;63.77;;;17.50;99.90;;;;;;5009567;28;20861;-50
2022/10/06 12:37:46;;;;;;;374.07;44.77;;;17.40;99.90;;;;;;5009672;28;20449;-53
2022/10/06 12:40:55;;;;;;;3.30;1.93;;;17.50;99.90;;;;;;5023650;28;20817;-50
2022/10/06 12:43:53;;;;;;;1.70;1.50;;;17.70;99.90;;;;;;5009636;28;20452;-50
2022/10/06 12:46:44;;;;;;;2.80;1.53;;;17.80;99.90;;;;;;5042825;28;20819;-50
2022/10/06 12:49:33;;;;;;;2.27;1.40;;;17.90;99.90;;;;;;5010072;28;20539;-50
2022/10/06 12:52:09;;;;;;;3.03;1.80;;;18.10;99.90;;;;;;5009448;28;20863;-51
2022/10/06 12:54:45;;;;;;;208.20;19.03;;;17.80;99.90;;;;;;5009488;28;20981;-49
2022/10/06 12:57:18;;;;;;;24.33;3.67;;;17.60;99.90;;;;;;5009486;28;20437;-51
2022/10/06 12:59:48;;;;;;;17.47;7.93;;;17.60;99.90;;;;;;5007972;28;20448;-50
2022/10/06 13:02:19;;;;;;;228.53;25.30;;;17.40;99.90;;;;;;5007984;28;21246;-50
2022/10/06 13:04:53;;;;;;;4.33;1.70;;;17.40;99.90;;;;;;5007384;28;20470;-51
2022/10/06 13:07:22;;;;;;;2.90;1.50;;;17.50;99.90;;;;;;5008041;28;20450;-51
2022/10/06 13:09:52;;;;;;;1.77;1.50;;;17.80;99.90;;;;;;5007805;28;20466;-50
2022/10/06 13:12:28;;;;;;;137.40;20.57;;;17.80;99.90;;;;;;5008042;28;20843;-50
2022/10/06 13:15:22;;;;;;;903.10;142.07;;;17.70;99.90;;;;;;5008950;28;20466;-49
2022/10/06 13:17:52;;;;;;;7.40;3.33;;;17.60;99.90;;;;;;5022402;28;20502;-47
2022/10/06 13:20:36;;;;;;;8.40;3.07;;;18.10;99.90;;;;;;5008027;28;20441;-47
2022/10/06 13:23:06;;;;;;;366.87;51.17;;;18.00;99.90;;;;;;5007656;28;20475;-48